Time;durP1;ratioP1;P1;durP2;ratioP2;P2;SDS_P1;SDS_P2;PMS_P1;PMS_P2;Temp;Humidity;BMP_temperature;BMP_pressure;BME280_temperature;BME280_humidity;BME280_pressure;Samples;Min_cycle;Max_cycle;Signal;HPM_P1;HPM_P2
2023/05/23 00:03:15;;;;;;;12.65;8.25;;;;;;;;;;10224985;28;20118;-84
2023/05/23 00:08:17;;;;;;;13.35;8.18;;;;;;;;;;10234322;28;20572;-85
2023/05/23 00:13:18;;;;;;;11.68;7.55;;;;;;;;;;10243197;28;20100;-82
2023/05/23 00:18:19;;;;;;;11.63;7.65;;;;;;;;;;10243126;28;20709;-84
2023/05/23 00:23:21;;;;;;;15.13;7.65;;;;;;;;;;10235846;28;20046;-87
2023/05/23 00:28:22;;;;;;;17.35;7.43;;;;;;;;;;10241375;28;20039;-82
2023/05/23 00:33:24;;;;;;;15.38;8.20;;;;;;;;;;10241781;28;20031;-82
2023/05/23 00:38:27;;;;;;;10.00;7.15;;;;;;;;;;10238927;28;20415;-83
2023/05/23 00:43:28;;;;;;;13.88;7.78;;;;;;;;;;10241202;28;20039;-83
2023/05/23 00:48:29;;;;;;;12.63;7.55;;;;;;;;;;10229109;28;20716;-84
2023/05/23 00:53:30;;;;;;;11.40;8.05;;;;;;;;;;10235975;28;20555;-83
2023/05/23 00:58:31;;;;;;;11.38;6.93;;;;;;;;;;10245267;28;20105;-82
2023/05/23 01:03:32;;;;;;;10.15;6.90;;;;;;;;;;10241139;28;20164;-85
2023/05/23 01:08:33;;;;;;;11.82;7.05;;;;;;;;;;10238846;28;20052;-85
2023/05/23 01:13:41;;;;;;;12.48;7.03;;;;;;;;;;10239120;28;20039;-82
2023/05/23 01:18:56;;;;;;;15.70;7.82;;;;;;;;;;10240327;28;20031;-83
2023/05/23 01:23:58;;;;;;;12.55;6.97;;;;;;;;;;10240026;28;20090;-83
2023/05/23 01:29:09;;;;;;;10.07;6.65;;;;;;;;;;10240774;28;20042;-82
2023/05/23 01:34:10;;;;;;;10.23;6.70;;;;;;;;;;10203316;28;20090;-83
2023/05/23 01:39:11;;;;;;;10.10;7.07;;;;;;;;;;10239234;28;20592;-84
2023/05/23 01:44:12;;;;;;;11.85;8.05;;;;;;;;;;10240386;28;20503;-85
2023/05/23 01:49:15;;;;;;;15.10;7.85;;;;;;;;;;10222957;28;20027;-84
2023/05/23 01:54:18;;;;;;;11.35;7.13;;;;;;;;;;10242598;28;20039;-84
2023/05/23 01:59:19;;;;;;;12.88;8.20;;;;;;;;;;10246340;28;20102;-86
2023/05/23 02:04:22;;;;;;;12.32;7.60;;;;;;;;;;10229610;28;20027;-85
2023/05/23 02:09:23;;;;;;;10.63;7.53;;;;;;;;;;10247568;28;20058;-83
2023/05/23 02:14:25;;;;;;;12.15;7.43;;;;;;;;;;10243252;28;20495;-83
2023/05/23 02:19:26;;;;;;;12.68;7.78;;;;;;;;;;10242390;28;20070;-83
2023/05/23 02:24:27;;;;;;;13.77;7.97;;;;;;;;;;10239442;28;20039;-84
2023/05/23 02:29:28;;;;;;;10.83;7.63;;;;;;;;;;10246860;28;20550;-82
2023/05/23 02:34:29;;;;;;;14.48;7.70;;;;;;;;;;10227667;28;20035;-87
2023/05/23 02:39:30;;;;;;;13.83;7.20;;;;;;;;;;10246255;28;20042;-84
2023/05/23 02:44:31;;;;;;;12.67;7.83;;;;;;;;;;10245963;28;20035;-84
2023/05/23 02:49:32;;;;;;;12.63;7.25;;;;;;;;;;10239671;28;20031;-83
2023/05/23 02:54:33;;;;;;;12.37;8.10;;;;;;;;;;10239500;28;20050;-84
2023/05/23 02:59:34;;;;;;;12.88;7.60;;;;;;;;;;10244266;28;20118;-86
2023/05/23 03:04:36;;;;;;;13.25;8.02;;;;;;;;;;10241513;28;20042;-84
2023/05/23 03:09:37;;;;;;;12.27;7.25;;;;;;;;;;10243010;28;20043;-83
2023/05/23 03:14:38;;;;;;;10.95;6.82;;;;;;;;;;10243332;28;20058;-81
2023/05/23 03:19:39;;;;;;;13.32;7.13;;;;;;;;;;10243367;28;20043;-83
2023/05/23 03:24:40;;;;;;;10.00;7.25;;;;;;;;;;10230762;28;20023;-84
2023/05/23 03:29:41;;;;;;;10.07;7.32;;;;;;;;;;10244516;28;20077;-83
2023/05/23 03:34:42;;;;;;;12.52;7.18;;;;;;;;;;10243878;28;20110;-83
2023/05/23 03:39:43;;;;;;;11.25;6.40;;;;;;;;;;10231021;28;20051;-85
2023/05/23 03:44:44;;;;;;;11.43;7.20;;;;;;;;;;10244638;28;20074;-84
2023/05/23 03:49:45;;;;;;;10.32;7.55;;;;;;;;;;10242130;28;20517;-83
2023/05/23 03:54:46;;;;;;;9.70;6.72;;;;;;;;;;10225152;28;20821;-85
2023/05/23 03:59:47;;;;;;;10.52;6.95;;;;;;;;;;10243488;28;20456;-84
2023/05/23 04:04:48;;;;;;;11.27;7.43;;;;;;;;;;10225189;28;20050;-82
2023/05/23 04:09:49;;;;;;;13.05;7.53;;;;;;;;;;10242372;28;20126;-83
2023/05/23 04:14:50;;;;;;;8.80;6.22;;;;;;;;;;10241894;28;20031;-84
2023/05/23 04:19:51;;;;;;;13.93;7.43;;;;;;;;;;10241714;28;20035;-81
2023/05/23 04:24:52;;;;;;;12.10;7.90;;;;;;;;;;10242409;28;20400;-83
2023/05/23 04:29:55;;;;;;;16.33;7.70;;;;;;;;;;10238550;28;20041;-84
2023/05/23 04:34:56;;;;;;;13.35;7.57;;;;;;;;;;10231546;28;20121;-84
2023/05/23 04:39:58;;;;;;;11.82;7.38;;;;;;;;;;10240726;28;20134;-83
2023/05/23 04:45:00;;;;;;;11.10;7.07;;;;;;;;;;10254085;28;20030;-83
2023/05/23 04:50:02;;;;;;;12.23;8.00;;;;;;;;;;10242055;28;20638;-85
2023/05/23 04:55:03;;;;;;;13.18;8.25;;;;;;;;;;10241828;28;20111;-82
2023/05/23 05:00:09;;;;;;;10.32;6.82;;;;;;;;;;10254417;28;20558;-84
2023/05/23 05:05:10;;;;;;;12.27;8.32;;;;;;;;;;10241139;28;20775;-84
2023/05/23 05:10:15;;;;;;;16.42;8.55;;;;;;;;;;10240379;28;20058;-84
2023/05/23 05:15:16;;;;;;;13.10;8.15;;;;;;;;;;10240959;28;20039;-82
2023/05/23 05:20:17;;;;;;;9.93;7.15;;;;;;;;;;10253295;28;20400;-83
2023/05/23 05:25:19;;;;;;;17.55;9.10;;;;;;;;;;10240745;28;20031;-84
2023/05/23 05:30:20;;;;;;;13.25;7.88;;;;;;;;;;10241138;28;20567;-83
2023/05/23 05:35:21;;;;;;;15.43;7.70;;;;;;;;;;10248781;28;20167;-83
2023/05/23 05:40:22;;;;;;;13.77;8.80;;;;;;;;;;10231298;28;20498;-82
2023/05/23 05:45:23;;;;;;;13.95;7.70;;;;;;;;;;10247864;28;20514;-83
2023/05/23 05:50:24;;;;;;;14.68;7.68;;;;;;;;;;10248468;28;20031;-84
2023/05/23 05:55:25;;;;;;;13.77;7.53;;;;;;;;;;10230055;28;20376;-84
2023/05/23 06:00:26;;;;;;;10.82;6.55;;;;;;;;;;10248351;28;20039;-83
2023/05/23 06:05:27;;;;;;;11.10;6.45;;;;;;;;;;10247543;28;20082;-82
2023/05/23 06:10:28;;;;;;;14.70;7.43;;;;;;;;;;10247176;28;20476;-85
2023/05/23 06:15:30;;;;;;;10.90;6.53;;;;;;;;;;10247601;28;20027;-83
2023/05/23 06:20:31;;;;;;;9.88;5.68;;;;;;;;;;10246863;28;20039;-83
2023/05/23 06:25:32;;;;;;;11.13;6.60;;;;;;;;;;10247248;28;20039;-85
2023/05/23 06:30:34;;;;;;;11.15;6.45;;;;;;;;;;10247586;28;20039;-85
2023/05/23 06:35:35;;;;;;;8.10;5.40;;;;;;;;;;10246257;28;20755;-85
2023/05/23 06:40:36;;;;;;;9.68;5.97;;;;;;;;;;10246700;28;20055;-84
2023/05/23 06:45:37;;;;;;;8.02;6.00;;;;;;;;;;10246079;28;20087;-84
2023/05/23 06:50:38;;;;;;;9.60;6.20;;;;;;;;;;10246573;28;20106;-83
2023/05/23 06:55:39;;;;;;;7.32;5.47;;;;;;;;;;10245873;28;20031;-85
2023/05/23 07:00:40;;;;;;;13.30;5.68;;;;;;;;;;10245542;28;20049;-85
2023/05/23 07:05:41;;;;;;;10.55;6.03;;;;;;;;;;10245664;28;20114;-82
2023/05/23 07:10:42;;;;;;;9.70;5.00;;;;;;;;;;10245539;28;20051;-80
2023/05/23 07:15:43;;;;;;;10.13;4.78;;;;;;;;;;10245767;28;20031;-83
2023/05/23 07:20:44;;;;;;;7.28;4.75;;;;;;;;;;10244731;28;20039;-83
2023/05/23 07:25:46;;;;;;;8.18;5.18;;;;;;;;;;10244849;28;20431;-82
2023/05/23 07:30:47;;;;;;;7.40;4.78;;;;;;;;;;10244965;28;20118;-83
2023/05/23 07:35:48;;;;;;;11.02;6.60;;;;;;;;;;10227388;28;20102;-84
2023/05/23 07:40:49;;;;;;;15.15;8.25;;;;;;;;;;10244846;28;20363;-81
2023/05/23 07:45:50;;;;;;;18.08;8.68;;;;;;;;;;10244033;28;20035;-82
2023/05/23 07:50:53;;;;;;;19.27;8.23;;;;;;;;;;10244173;28;20027;-83
2023/05/23 07:55:55;;;;;;;16.13;7.78;;;;;;;;;;10243173;28;20035;-82
2023/05/23 08:00:56;;;;;;;19.67;8.38;;;;;;;;;;10243429;28;20041;-82
2023/05/23 08:05:57;;;;;;;15.32;7.35;;;;;;;;;;10244003;28;20059;-82
2023/05/23 08:10:58;;;;;;;15.57;7.85;;;;;;;;;;10242852;28;20027;-83
2023/05/23 08:15:59;;;;;;;19.50;8.85;;;;;;;;;;10242842;28;20031;-84
2023/05/23 08:21:01;;;;;;;13.60;8.02;;;;;;;;;;10242749;28;20164;-83
2023/05/23 08:26:02;;;;;;;14.68;7.70;;;;;;;;;;10242825;28;20035;-83
2023/05/23 08:31:03;;;;;;;14.85;7.47;;;;;;;;;;10225744;28;20121;-84
2023/05/23 08:36:04;;;;;;;14.73;7.43;;;;;;;;;;10242770;28;20062;-83
2023/05/23 08:41:11;;;;;;;17.80;7.97;;;;;;;;;;10242507;28;20617;-82
2023/05/23 08:46:12;;;;;;;20.58;8.60;;;;;;;;;;10243075;28;20031;-83
2023/05/23 08:51:13;;;;;;;17.55;8.13;;;;;;;;;;10243077;28;20019;-82
2023/05/23 08:56:15;;;;;;;12.40;7.13;;;;;;;;;;10242623;28;20165;-82
2023/05/23 09:01:19;;;;;;;12.10;6.20;;;;;;;;;;10241828;28;20049;-84
2023/05/23 09:06:20;;;;;;;21.27;8.07;;;;;;;;;;10255006;28;20110;-83
2023/05/23 09:11:23;;;;;;;13.02;7.40;;;;;;;;;;10242407;28;20107;-85
2023/05/23 09:16:24;;;;;;;14.68;8.10;;;;;;;;;;10241667;28;20146;-85
2023/05/23 09:21:25;;;;;;;14.40;6.78;;;;;;;;;;10241575;28;20043;-84
2023/05/23 09:26:26;;;;;;;14.35;6.35;;;;;;;;;;10241812;28;20042;-83
2023/05/23 09:31:28;;;;;;;11.85;5.85;;;;;;;;;;10254143;28;20472;-84
2023/05/23 09:36:29;;;;;;;11.30;5.20;;;;;;;;;;10241166;28;20035;-82
2023/05/23 09:41:32;;;;;;;13.07;4.88;;;;;;;;;;10241387;28;20050;-83
2023/05/23 09:46:36;;;;;;;8.02;4.75;;;;;;;;;;10241540;28;20051;-83
2023/05/23 09:51:37;;;;;;;9.70;5.32;;;;;;;;;;10241435;28;20123;-83
2023/05/23 09:56:42;;;;;;;10.98;4.97;;;;;;;;;;10240849;28;20041;-83
2023/05/23 10:01:44;;;;;;;6.68;4.40;;;;;;;;;;10223765;28;20179;-86
2023/05/23 10:06:52;;;;;;;8.73;4.38;;;;;;;;;;10253950;28;20075;-83
2023/05/23 10:11:56;;;;;;;8.23;4.53;;;;;;;;;;10240579;28;20031;-84
2023/05/23 10:17:06;;;;;;;13.13;5.57;;;;;;;;;;10242154;28;20033;-84
2023/05/23 10:22:08;;;;;;;6.20;4.30;;;;;;;;;;10247311;28;20274;-83
2023/05/23 10:27:11;;;;;;;9.30;4.40;;;;;;;;;;10247845;28;20647;-83
2023/05/23 10:32:13;;;;;;;7.40;4.50;;;;;;;;;;10247014;28;20046;-82
2023/05/23 10:37:23;;;;;;;7.60;4.22;;;;;;;;;;10246954;28;20035;-81
2023/05/23 10:42:33;;;;;;;6.68;4.40;;;;;;;;;;10247277;28;20506;-82
2023/05/23 10:47:35;;;;;;;5.32;3.97;;;;;;;;;;10246797;28;20028;-83
2023/05/23 10:52:39;;;;;;;9.82;4.45;;;;;;;;;;10246487;28;20035;-84
2023/05/23 10:57:42;;;;;;;5.55;4.55;;;;;;;;;;10246087;28;20497;-82
2023/05/23 11:02:54;;;;;;;6.70;4.43;;;;;;;;;;10246185;28;20039;-82
2023/05/23 11:08:21;;;;;;;6.30;4.18;;;;;;;;;;10245234;28;20055;-82
2023/05/23 11:13:23;;;;;;;8.27;4.80;;;;;;;;;;10242981;28;20042;-82
2023/05/23 11:18:26;;;;;;;6.80;4.80;;;;;;;;;;10245311;28;20107;-85
2023/05/23 11:23:40;;;;;;;7.50;4.50;;;;;;;;;;10245080;28;20082;-84
2023/05/23 11:28:55;;;;;;;7.37;3.90;;;;;;;;;;10244283;28;20034;-83
2023/05/23 11:33:56;;;;;;;8.02;4.82;;;;;;;;;;10244575;28;20114;-84
2023/05/23 11:39:02;;;;;;;13.18;4.80;;;;;;;;;;10244787;28;20050;-83
2023/05/23 11:44:10;;;;;;;7.28;4.32;;;;;;;;;;10244757;28;20023;-84
2023/05/23 11:49:12;;;;;;;7.75;4.60;;;;;;;;;;10244427;28;20033;-83
2023/05/23 11:54:13;;;;;;;8.07;4.97;;;;;;;;;;10244151;28;20034;-83
2023/05/23 11:59:14;;;;;;;6.90;4.70;;;;;;;;;;10243905;28;20728;-84
2023/05/23 12:04:15;;;;;;;8.38;4.60;;;;;;;;;;10243422;28;20090;-83
2023/05/23 12:09:17;;;;;;;6.57;4.35;;;;;;;;;;10251112;28;20454;-82
2023/05/23 12:14:18;;;;;;;6.22;4.00;;;;;;;;;;10234510;28;20027;-83
2023/05/23 12:19:19;;;;;;;9.30;4.95;;;;;;;;;;10231370;28;20039;-86
2023/05/23 12:24:21;;;;;;;6.22;4.93;;;;;;;;;;10242075;28;20610;-83
2023/05/23 12:29:34;;;;;;;9.95;5.38;;;;;;;;;;10223920;28;20044;-87
2023/05/23 12:34:40;;;;;;;5.60;4.28;;;;;;;;;;10240426;28;20039;-88
2023/05/23 12:39:44;;;;;;;6.68;4.18;;;;;;;;;;10241137;28;20495;-85
2023/05/23 12:44:47;;;;;;;9.23;6.20;;;;;;;;;;10222811;28;20035;-85
2023/05/23 12:49:48;;;;;;;10.98;6.43;;;;;;;;;;10231208;28;20035;-86
2023/05/23 12:54:49;;;;;;;12.55;6.78;;;;;;;;;;10220050;28;20035;-84
2023/05/23 12:59:50;;;;;;;12.90;7.05;;;;;;;;;;10239553;28;20043;-89
2023/05/23 13:04:51;;;;;;;16.42;7.40;;;;;;;;;;10223703;28;20031;-87
2023/05/23 13:09:52;;;;;;;14.40;8.18;;;;;;;;;;10194427;29;20060;-88
2023/05/23 13:14:54;;;;;;;14.80;7.32;;;;;;;;;;10221750;29;20028;-88
2023/05/23 13:19:55;;;;;;;12.43;8.00;;;;;;;;;;10179453;29;20039;-89
2023/05/23 13:24:56;;;;;;;11.32;8.00;;;;;;;;;;10207101;29;20030;-86
2023/05/23 13:29:57;;;;;;;10.73;7.85;;;;;;;;;;10198205;29;20032;-88
2023/05/23 13:34:58;;;;;;;10.77;8.13;;;;;;;;;;10201985;29;20043;-88
2023/05/23 13:40:01;;;;;;;11.57;7.97;;;;;;;;;;10191321;29;20690;-86
2023/05/23 13:45:03;;;;;;;15.15;7.78;;;;;;;;;;10183628;29;20032;-85
2023/05/23 13:50:05;;;;;;;9.77;7.78;;;;;;;;;;10190855;29;20396;-86
2023/05/23 13:55:06;;;;;;;11.90;7.45;;;;;;;;;;10199785;29;20038;-87
2023/05/23 14:00:07;;;;;;;11.57;7.60;;;;;;;;;;10199851;29;20078;-86
2023/05/23 14:05:08;;;;;;;8.40;6.90;;;;;;;;;;10206970;29;20028;-88
2023/05/23 14:10:10;;;;;;;9.75;7.15;;;;;;;;;;10201764;29;20064;-86
2023/05/23 14:15:11;;;;;;;11.60;8.23;;;;;;;;;;10205242;29;20487;-85
2023/05/23 14:20:13;;;;;;;12.63;7.97;;;;;;;;;;10220741;29;20076;-88
2023/05/23 14:25:14;;;;;;;14.60;8.32;;;;;;;;;;10204843;29;20543;-89
2023/05/23 14:30:15;;;;;;;11.95;8.70;;;;;;;;;;10206138;29;20031;-87
2023/05/23 14:35:16;;;;;;;15.52;11.88;;;;;;;;;;10205057;29;20573;-88
2023/05/23 14:40:17;;;;;;;11.32;8.07;;;;;;;;;;10203241;29;20055;-87
2023/05/23 14:45:18;;;;;;;10.95;8.15;;;;;;;;;;10206091;29;20396;-88
2023/05/23 14:50:20;;;;;;;10.43;8.13;;;;;;;;;;10192746;29;20062;-91
2023/05/23 14:55:21;;;;;;;11.85;7.97;;;;;;;;;;10205992;29;20687;-89
2023/05/23 15:00:22;;;;;;;12.25;8.90;;;;;;;;;;10219290;29;20626;-90
2023/05/23 15:05:23;;;;;;;13.82;9.15;;;;;;;;;;10184474;29;20480;-88
2023/05/23 15:10:24;;;;;;;13.07;9.00;;;;;;;;;;10227838;28;20047;-87
2023/05/23 15:15:32;;;;;;;17.10;14.13;;;;;;;;;;10243753;28;20046;-87
2023/05/23 15:20:33;;;;;;;15.80;12.85;;;;;;;;;;10227140;28;20040;-89
2023/05/23 15:25:34;;;;;;;33.05;25.92;;;;;;;;;;10221619;28;20039;-89
2023/05/23 15:30:36;;;;;;;13.63;10.88;;;;;;;;;;10216121;28;20042;-90
2023/05/23 15:35:37;;;;;;;16.02;10.20;;;;;;;;;;10210477;28;20035;-87
2023/05/23 15:40:38;;;;;;;14.02;9.63;;;;;;;;;;10219187;28;20055;-87
2023/05/23 15:45:39;;;;;;;14.75;9.35;;;;;;;;;;10251828;28;20078;-91
2023/05/23 15:50:40;;;;;;;15.77;9.80;;;;;;;;;;10247250;28;20472;-91
2023/05/23 15:55:41;;;;;;;12.70;8.82;;;;;;;;;;10230108;28;20031;-87
2023/05/23 16:00:42;;;;;;;12.30;8.82;;;;;;;;;;10224427;28;20111;-88
2023/05/23 16:05:43;;;;;;;13.00;9.15;;;;;;;;;;10208257;29;20122;-87
2023/05/23 16:10:44;;;;;;;13.38;8.55;;;;;;;;;;10225416;28;20066;-88
2023/05/23 16:15:45;;;;;;;14.32;10.82;;;;;;;;;;10225378;28;20031;-89
2023/05/23 16:20:46;;;;;;;14.38;9.70;;;;;;;;;;10226719;28;20666;-87
2023/05/23 16:25:47;;;;;;;14.23;9.70;;;;;;;;;;10213058;28;20081;-85
2023/05/23 16:30:50;;;;;;;15.40;10.18;;;;;;;;;;10234016;28;20093;-86
2023/05/23 16:35:51;;;;;;;15.70;11.95;;;;;;;;;;10220483;28;20431;-86
2023/05/23 16:40:52;;;;;;;17.70;12.95;;;;;;;;;;10231815;28;20036;-87
2023/05/23 16:45:53;;;;;;;15.60;11.73;;;;;;;;;;10229198;28;20472;-89
2023/05/23 16:50:54;;;;;;;15.38;11.23;;;;;;;;;;10224459;28;20035;-89
2023/05/23 16:55:55;;;;;;;17.35;12.48;;;;;;;;;;10224431;28;20477;-91
2023/05/23 17:00:56;;;;;;;15.13;11.10;;;;;;;;;;10223652;28;20090;-92
2023/05/23 17:05:57;;;;;;;17.48;11.63;;;;;;;;;;10242385;28;20078;-92
2023/05/23 17:10:58;;;;;;;16.77;11.25;;;;;;;;;;10210282;28;20035;-89
2023/05/23 17:16:00;;;;;;;19.65;13.32;;;;;;;;;;10224148;28;20039;-85
2023/05/23 17:21:01;;;;;;;19.20;11.45;;;;;;;;;;10199348;28;20043;-89
2023/05/23 17:26:02;;;;;;;14.27;11.25;;;;;;;;;;10231939;28;20039;-92
2023/05/23 17:31:03;;;;;;;16.13;12.18;;;;;;;;;;10220335;28;20616;-86
2023/05/23 17:36:04;;;;;;;20.83;14.52;;;;;;;;;;10223733;28;20597;-86
2023/05/23 17:41:05;;;;;;;22.52;15.40;;;;;;;;;;10218335;28;20054;-87
2023/05/23 17:46:06;;;;;;;23.10;16.70;;;;;;;;;;10222371;28;20026;-85
2023/05/23 17:51:07;;;;;;;20.42;15.68;;;;;;;;;;10224832;28;21000;-85
2023/05/23 17:56:08;;;;;;;24.80;16.02;;;;;;;;;;10245615;28;20031;-86
2023/05/23 18:01:10;;;;;;;19.38;13.85;;;;;;;;;;10238942;28;20038;-85
2023/05/23 18:06:11;;;;;;;22.10;15.55;;;;;;;;;;10227160;28;20059;-88
2023/05/23 18:11:13;;;;;;;23.17;15.63;;;;;;;;;;10245939;28;20039;-85
2023/05/23 18:16:13;;;;;;;20.15;15.82;;;;;;;;;;10234253;28;20098;-87
2023/05/23 18:21:16;;;;;;;18.63;13.70;;;;;;;;;;10230894;28;20105;-86
2023/05/23 18:26:17;;;;;;;21.02;15.65;;;;;;;;;;10210598;28;20126;-85
2023/05/23 18:31:21;;;;;;;24.38;15.63;;;;;;;;;;10244877;28;20222;-86
2023/05/23 18:36:22;;;;;;;22.75;16.85;;;;;;;;;;10242788;29;20190;-85
2023/05/23 18:41:30;;;;;;;22.10;17.88;;;;;;;;;;10234981;28;20147;-85
2023/05/23 18:46:31;;;;;;;26.00;18.75;;;;;;;;;;10246021;28;20047;-84
2023/05/23 18:51:32;;;;;;;24.52;17.98;;;;;;;;;;10227188;29;20047;-85
2023/05/23 18:56:33;;;;;;;28.63;19.92;;;;;;;;;;10243295;28;20444;-84
2023/05/23 19:01:34;;;;;;;33.35;25.80;;;;;;;;;;10244814;28;20447;-84
2023/05/23 19:06:36;;;;;;;29.02;22.08;;;;;;;;;;10221008;28;20066;-85
2023/05/23 19:11:37;;;;;;;29.17;20.33;;;;;;;;;;10222906;28;20031;-84
2023/05/23 19:16:38;;;;;;;28.80;22.50;;;;;;;;;;10227093;28;20039;-87
2023/05/23 19:21:39;;;;;;;32.60;25.17;;;;;;;;;;10227131;28;20054;-89
2023/05/23 19:26:41;;;;;;;28.52;21.85;;;;;;;;;;10221560;28;20039;-85
2023/05/23 19:31:42;;;;;;;29.00;20.08;;;;;;;;;;10234546;28;20038;-85
2023/05/23 19:36:43;;;;;;;30.38;22.40;;;;;;;;;;10231826;28;20039;-88
2023/05/23 19:41:44;;;;;;;31.13;21.92;;;;;;;;;;10233546;28;20047;-86
2023/05/23 19:46:45;;;;;;;32.28;21.27;;;;;;;;;;10226162;28;20042;-86
2023/05/23 19:51:46;;;;;;;34.35;25.80;;;;;;;;;;10239683;28;20042;-88
2023/05/23 19:56:47;;;;;;;37.67;26.75;;;;;;;;;;10240501;28;20043;-86
2023/05/23 20:01:48;;;;;;;34.72;26.17;;;;;;;;;;10226161;28;20106;-85
2023/05/23 20:06:49;;;;;;;35.03;26.15;;;;;;;;;;10225098;28;20055;-87
2023/05/23 20:11:51;;;;;;;31.23;23.20;;;;;;;;;;10232324;29;20039;-85
2023/05/23 20:16:52;;;;;;;35.20;25.55;;;;;;;;;;10242736;29;20074;-88
2023/05/23 20:21:53;;;;;;;34.08;26.23;;;;;;;;;;10242611;29;20051;-87
2023/05/23 20:26:54;;;;;;;32.22;26.92;;;;;;;;;;10233652;29;20031;-85
2023/05/23 20:31:55;;;;;;;32.70;24.15;;;;;;;;;;10222638;28;20050;-88
2023/05/23 20:36:56;;;;;;;37.65;26.00;;;;;;;;;;10224179;29;20039;-85
2023/05/23 20:41:58;;;;;;;34.92;24.23;;;;;;;;;;10230009;29;20047;-85
2023/05/23 20:46:59;;;;;;;31.00;21.40;;;;;;;;;;10241355;29;20479;-87
2023/05/23 20:52:00;;;;;;;31.67;23.63;;;;;;;;;;10233894;29;20718;-85
2023/05/23 20:57:02;;;;;;;31.05;22.15;;;;;;;;;;10218718;28;20042;-87
2023/05/23 21:02:03;;;;;;;35.28;23.92;;;;;;;;;;10235575;28;20476;-88
2023/05/23 21:07:05;;;;;;;35.22;23.98;;;;;;;;;;10240932;28;20051;-85
2023/05/23 21:12:06;;;;;;;28.10;21.27;;;;;;;;;;10239462;28;20530;-86
2023/05/23 21:17:07;;;;;;;26.52;21.23;;;;;;;;;;10240854;28;20038;-85
2023/05/23 21:22:08;;;;;;;29.17;21.83;;;;;;;;;;10219832;28;20065;-85
2023/05/23 21:27:08;;;;;;;32.53;22.42;;;;;;;;;;10208750;28;20027;-85
2023/05/23 21:32:10;;;;;;;27.23;20.67;;;;;;;;;;10239950;28;20155;-86
2023/05/23 21:37:11;;;;;;;26.25;19.02;;;;;;;;;;10240350;28;20058;-83
2023/05/23 21:42:12;;;;;;;25.20;19.35;;;;;;;;;;10240612;28;20118;-85
2023/05/23 21:47:13;;;;;;;24.90;18.60;;;;;;;;;;10235354;28;20671;-84
2023/05/23 21:52:14;;;;;;;26.02;17.95;;;;;;;;;;10239173;28;20570;-86
2023/05/23 21:57:15;;;;;;;32.92;21.33;;;;;;;;;;10228628;28;20102;-85
2023/05/23 22:02:16;;;;;;;29.27;20.23;;;;;;;;;;10240433;28;20122;-87
2023/05/23 22:07:18;;;;;;;24.15;17.98;;;;;;;;;;10221104;28;20112;-85
2023/05/23 22:12:20;;;;;;;24.92;17.38;;;;;;;;;;10229694;28;20392;-85
2023/05/23 22:17:21;;;;;;;22.90;16.95;;;;;;;;;;10246040;28;20635;-90
2023/05/23 22:22:22;;;;;;;25.42;17.98;;;;;;;;;;10226622;28;20047;-85
2023/05/23 22:27:23;;;;;;;23.42;17.52;;;;;;;;;;10219450;28;20118;-85
2023/05/23 22:32:24;;;;;;;22.27;16.52;;;;;;;;;;10247097;28;20539;-85
2023/05/23 22:37:25;;;;;;;26.90;17.75;;;;;;;;;;10246246;28;20507;-88
2023/05/23 22:42:26;;;;;;;27.60;17.75;;;;;;;;;;10244681;28;20054;-87
2023/05/23 22:47:31;;;;;;;25.83;17.80;;;;;;;;;;10246740;28;20114;-86
2023/05/23 22:52:33;;;;;;;22.87;17.10;;;;;;;;;;10246085;28;20693;-85
2023/05/23 22:57:34;;;;;;;24.02;17.73;;;;;;;;;;10236970;28;20042;-85
2023/05/23 23:02:35;;;;;;;22.48;17.27;;;;;;;;;;10246437;28;20047;-85
2023/05/23 23:07:36;;;;;;;24.27;18.10;;;;;;;;;;10227667;28;20513;-86
2023/05/23 23:12:37;;;;;;;25.42;18.40;;;;;;;;;;10243598;28;20535;-85
2023/05/23 23:17:38;;;;;;;25.20;18.50;;;;;;;;;;10227633;28;20483;-84
2023/05/23 23:22:39;;;;;;;33.13;23.15;;;;;;;;;;10238393;28;20062;-86
2023/05/23 23:27:40;;;;;;;30.70;20.40;;;;;;;;;;10215495;28;20035;-82
2023/05/23 23:32:41;;;;;;;29.05;20.35;;;;;;;;;;10244074;28;20573;-85
2023/05/23 23:37:42;;;;;;;27.92;20.88;;;;;;;;;;10244721;28;20846;-85
2023/05/23 23:42:43;;;;;;;30.40;20.92;;;;;;;;;;10235599;28;20047;-83
2023/05/23 23:47:46;;;;;;;31.17;22.73;;;;;;;;;;10244511;28;20019;-84
2023/05/23 23:52:47;;;;;;;25.63;19.95;;;;;;;;;;10243968;28;20122;-85
2023/05/23 23:57:48;;;;;;;31.88;22.55;;;;;;;;;;10230150;28;20126;-85
